Burns Pinion Ridge Reserve, California Weather observations

Data are for 10 minute period ending at time listed.
 Day   Time   Solar   Ave.   Ave.  Ave.  Vector  Max.   Baro.   Total    
  of    of     Rad.   Air    Rel.  Wind   Wind   Wind  Press.  Precip.   
Year   Day            Temp.  Hum.  Speed  Dir.   Gust                    
2016   (PST)  Kw/m2    F      %     mph   deg.    mph    mb.     in.     
-------------------------------------------------------------------------
 178    2:10   0.00   69.9    34    1.0   225     2.9   875.8    0.00 
 178    2:20   0.00   68.2    36    1.0   316     2.3   875.8    0.00 
 178    2:30   0.00   66.8    38    1.5   303     3.4   875.7    0.00 
 178    2:40   0.00   67.0    37    1.9   316     3.4   875.7    0.00 
 178    2:50   0.00   67.0    37    0.0     0     0.0   875.7    0.00 
 178    3:00   0.00   66.1    37    0.2   254     1.0   875.7    0.00 
 178    3:10   0.00   65.6    36    0.2   285     1.2   875.6    0.00 
 178    3:20   0.00   65.3    35    0.5   295     1.7   875.5    0.00 
 178    3:30   0.00   64.9    35    0.2   241     1.5   875.5    0.00 
 178    3:40   0.00   64.7    35    1.3   261     2.0   875.5    0.00 
 178    3:50   0.00   64.5    36    0.1   309     0.9   875.5    0.00 
 178    4:00   0.00   64.8    35    0.9   204     1.8   875.6    0.00 
 178    4:10   0.00   64.9    35    0.8   282     1.9   875.7    0.00 
 178    4:20   0.00   65.0    34    0.2   253     0.7   875.8    0.00 
 178    4:30   0.00   64.7    34    0.0     0     0.0   875.9    0.00 
 178    4:40   0.00   64.4    34    0.3   339     1.2   875.9    0.00 
 178    4:50   0.01   64.7    34    0.1   298     0.8   875.9    0.00 
 178    5:00   0.01   65.1    33    0.5   229     1.3   875.9    0.00 
 178    5:10   0.03   65.3    33    1.0   259     2.1   876.0    0.00 
 178    5:20   0.07   68.2    30    1.4   309     2.6   876.1    0.00 
 178    5:30   0.09   72.3    26    0.1   296     0.9   876.2    0.00 
 178    5:40   0.12   75.1    24    0.1   322     0.8   876.3    0.00 
 178    5:50   0.15   78.7    21    0.3   310     1.3   876.5    0.00 
 178    6:00   0.18   81.7    18    0.4   297     1.5   876.6    0.00 
 178    6:10   0.22   83.8    17    1.2   336     2.9   876.8    0.00 
 178    6:20   0.25   84.4    17    1.4   337     2.6   877.0    0.00 
 178    6:30   0.29   85.6    16    1.5   327     2.9   877.2    0.00 
 178    6:40   0.32   86.2    16    1.2   343     3.0   877.5    0.00 
 178    6:50   0.35   88.7    15    1.2   119     3.4   877.6    0.00 
 178    7:00   0.39   88.6    16    3.3   160     5.3   877.7    0.00 
 178    7:10   0.43   89.8    15    3.1   168     5.3   877.8    0.00 
 178    7:20   0.46   89.5    15    2.9   149     6.1   877.9    0.00 
 178    7:30   0.49   90.9    14    3.7   150     7.6   877.9    0.00 
 178    7:40   0.53   89.7    15    4.7   151    10.3   878.0    0.00 
 178    7:50   0.56   88.1    17    5.1   215    10.2   878.0    0.00 
 178    8:00   0.59   87.1    18    5.9   208    11.2   878.1    0.00 
 178    8:10   0.62   87.7    18    5.1   196     9.1   878.1    0.00 
 178    8:20   0.66   88.0    18    5.8   195    10.7   878.1    0.00 
 178    8:30   0.69   87.0    20    5.8   207    11.2   878.1    0.00 
 178    8:40   0.72   87.7    19    5.1   197    10.7   878.0    0.00 
 178    8:50   0.74   88.1    19    5.6   208    11.9   878.0    0.00 
 178    9:00   0.77   88.0    20    5.9   205    12.5   878.1    0.00 
 178    9:10   0.80   88.6    20    6.5   204    13.3   878.1    0.00 
 178    9:20   0.82   88.7    19    5.6   195    11.8   878.0    0.00 
 178    9:30   0.85   90.7    18    3.9   204     8.3   878.0    0.00 
 178    9:40   0.87   90.5    17    5.6   198    11.5   878.0    0.00 
 178    9:50   0.89   90.2    16    5.6   197    10.4   878.0    0.00 
 178   10:00   0.90   90.3    16    7.0   205    13.8   877.9    0.00 
 178   10:10   0.92   89.7    16    7.8   206    15.5   877.9    0.00 
 178   10:20   0.94   90.9    14    7.0   203    14.9   877.9    0.00 
 178   10:30   0.95   91.8    14    6.6   193    13.3   877.9    0.00 
 178   10:40   0.96   92.3    13    6.0   191    12.7   877.8    0.00 
 178   10:50   0.97   91.9    13    6.8   203    14.7   877.8    0.00 
 178   11:00   0.98   92.4    13    6.3   203    14.5   877.7    0.00 
 178   11:10   0.98   93.1    12    7.0   206    15.4   877.6    0.00 
 178   11:20   0.99   92.8    12    7.6   214    14.1   877.5    0.00 
 178   11:30   0.99   93.3    12    7.1   204    14.8   877.5    0.00 
 178   11:40   0.99   93.9    12    6.8   214    13.7   877.5    0.00 
 178   11:50   0.99   95.4    12    5.5   195    11.0   877.5    0.00 
 178   12:00   0.99   95.3    13    5.7   206    12.7   877.5    0.00 
 178   12:10   0.97   94.6    13    7.4   217    16.2   877.5    0.00 
 178   12:20   0.99   95.0    13    5.1   185    13.1   877.4    0.00 
 178   12:30   0.98   94.6    13    7.8   199    16.3   877.3    0.00 
 178   12:40   0.98   95.9    12    6.0   194    15.2   877.2    0.00 
 178   12:50   0.97   96.8    12    5.6   206    14.3   877.1    0.00 
 178   13:00   0.96   96.2    12    6.5   223    14.1   877.1    0.00 
 178   13:10   0.95   96.5    12    6.8   193    13.4   877.0    0.00 
 178   13:20   0.94   96.8    12    6.1   207    12.1   877.0    0.00 
 178   13:30   0.93   96.5    13    7.7   211    16.7   876.9    0.00 
 178   13:40   0.91   95.7    13    7.7   209    14.0   876.9    0.00 
 178   13:50   0.89   96.2    13    7.5   216    14.7   876.8    0.00 
 178   14:00   0.87   95.6    13    7.7   222    14.2   876.8    0.00 
 178   14:10   0.85   96.3    13    7.1   225    14.6   876.8    0.00 
 178   14:20   0.83   96.1    13    6.7   226    12.3   876.7    0.00 
 178   14:30   0.80   97.2    13    5.8   190    11.4   876.6    0.00 
 178   14:40   0.78   96.7    13    9.3   152    18.7   876.6    0.00 
 178   14:50   0.75   94.9    14   10.5   146    18.3   876.6    0.00 
 178   15:00   0.73   95.6    14    8.5   153    16.5   876.5    0.00 
 178   15:10   0.70   95.1    14    8.8   174    17.3   876.5    0.00 
 178   15:20   0.67   95.2    14    7.1   216    18.0   876.4    0.00 
 178   15:30   0.64   95.1    15    6.5   207    13.4   876.3    0.00 
 178   15:40   0.44   93.3    15    9.3   213    18.0   876.3    0.00 
 178   15:50   0.52   92.6    15    9.0   214    20.9   876.2    0.00 
 178   16:00   0.41   91.9    15   10.9   219    21.5   876.1    0.00 
 178   16:10   0.39   91.9    15    8.6   223    19.6   876.0    0.00 
 178   16:20   0.49   92.5    15    8.4   219    18.4   876.0    0.00 
 178   16:30   0.45   92.0    16   10.3   212    19.2   876.0    0.00 
 178   16:40   0.41   91.7    16    9.4   210    17.0   875.9    0.00 
 178   16:50   0.38   90.2    17   12.3   210    24.9   875.9    0.00 
 178   17:00   0.34   90.5    18    7.8   210    15.8   876.0    0.00 
 178   17:10   0.31   90.2    18    9.7   218    16.1   876.1    0.00 
 178   17:20   0.27   89.4    19    9.3   215    15.8   876.2    0.00 
 178   17:30   0.24   89.2    19    9.0   218    17.0   876.3    0.00 
 178   17:40   0.20   89.3    20    8.3   220    16.4   876.4    0.00 
 178   17:50   0.17   88.4    20    9.5   216    20.2   876.4    0.00 
 178   18:00   0.14   87.8    21    8.8   215    18.3   876.5    0.00 
 178   18:10   0.11   87.5    21    9.0   214    16.4   876.6    0.00 
 178   18:20   0.08   86.9    22    8.1   215    15.0   876.6    0.00 
 178   18:30   0.06   86.4    22    7.5   216    16.3   876.6    0.00 
 178   18:40   0.04   85.6    23    8.4   210    16.7   876.6    0.00 
 178   18:50   0.02   84.8    24    9.4   212    17.0   876.7    0.00 
 178   19:00   0.01   84.4    24    9.2   212    16.8   876.6    0.00 
 178   19:10   0.00   84.1    24    8.4   207    15.4   876.8    0.00 
 178   19:20   0.00   83.9    25   10.3   213    18.4   876.9    0.00 
 178   19:30   0.00   83.7    26    9.5   214    15.6   876.9    0.00 
 178   19:40   0.00   83.3    28    9.6   214    15.2   877.0    0.00 
 178   19:50   0.00   83.0    29   10.0   212    17.0   877.1    0.00 
 178   20:00   0.00   82.8    29    9.9   212    16.9   877.3    0.00 
 178   20:10   0.00   82.6    29   10.0   212    15.3   877.4    0.00 
 178   20:20   0.00   82.5    29    9.8   215    15.1   877.5    0.00 
 178   20:30   0.00   82.3    28   10.1   215    17.1   877.5    0.00 
 178   20:40   0.00   82.1    28   10.5   214    16.4   877.6    0.00 
 178   20:50   0.00   81.8    29    7.1   214    14.5   877.8    0.00 
 178   21:00   0.00   81.7    29    7.1   213    12.3   877.8    0.00 
 178   21:10   0.00   81.5    29    7.8   212    13.2   877.8    0.00 
 178   21:20   0.00   81.4    29    8.7   210    14.0   877.9    0.00 
 178   21:30   0.00   81.2    30    7.8   210    12.6   877.9    0.00 
 178   21:40   0.00   81.1    30    8.6   213    15.4   877.8    0.00 
 178   21:50   0.00   81.1    30    8.6   214    14.2   877.8    0.00 
 178   22:00   0.00   80.8    30    7.9   214    12.6   877.8    0.00 
 178   22:10   0.00   80.7    30    7.3   216    13.7   877.9    0.00 
 178   22:20   0.00   80.5    31    7.3   215    11.6   877.9    0.00 
 178   22:30   0.00   80.5    31    7.4   210    11.4   878.0    0.00 
 178   22:40   0.00   80.4    31    7.2   209    10.7   878.1    0.00 
 178   22:50   0.00   80.3    31    7.1   212    10.4   878.2    0.00 
 178   23:00   0.00   80.2    32    6.6   207    11.2   878.1    0.00 
 178   23:10   0.00   80.0    32    5.4   210     9.3   878.1    0.00 
 178   23:20   0.00   80.1    32    7.7   213    11.6   878.1    0.00 
 178   23:30   0.00   80.1    32    7.9   209    11.8   878.0    0.00 
 178   23:40   0.00   79.9    32    7.0   210    10.6   878.0    0.00 
 178   23:50   0.00   79.9    32    7.6   210    10.9   878.0    0.00 
 179    0:00   0.00   80.0    32    7.6   208    10.2   877.9    0.00 
 179    0:10   0.00   79.7    32    6.5   214     9.9   877.9    0.00 
 179    0:20   0.00   79.5    32    6.4   212    10.3   877.9    0.00 
 179    0:30   0.00   79.5    32    6.9   212    11.0   877.9    0.00 
 179    0:40   0.00   79.5    32    7.4   208    12.1   877.9    0.00 
 179    0:50   0.00   79.6    32    7.6   211    11.3   877.9    0.00 
 179    1:00   0.00   79.4    32    7.4   211    10.8   877.9    0.00 
 179    1:10   0.00   79.3    33    6.7   211    11.0   878.0    0.00 
 179    1:20   0.00   79.2    33    7.4   213    10.9   878.0    0.00 
 179    1:30   0.00   79.1    33    6.6   215    11.9   878.1    0.00 
 179    1:40   0.00   79.1    33    7.5   210    12.7   878.2    0.00 
 179    1:50   0.00   79.1    33    8.7   212    12.6   878.2    0.00 
 179    2:00   0.00   79.2    33    8.9   211    13.0   878.2    0.00 

Return to Burns Pinion Ridge Reserve graphs page.


Western Regional Climate Center,wrcc@dri.edu